sensor_id;sensor_type;location;lat;lon;timestamp;temperature;humidity
51021;DHT22;38907;45.562;8.856;2022-08-27T00:00:19;24.20;96.80
51021;DHT22;38907;45.562;8.856;2022-08-27T00:05:24;24.20;97.00
51021;DHT22;38907;45.562;8.856;2022-08-27T00:10:27;24.10;97.10
51021;DHT22;38907;45.562;8.856;2022-08-27T00:15:30;24.10;97.30
51021;DHT22;38907;45.562;8.856;2022-08-27T00:20:35;24.10;97.90
51021;DHT22;38907;45.562;8.856;2022-08-27T00:25:44;24.00;98.40
51021;DHT22;38907;45.562;8.856;2022-08-27T00:30:47;23.90;98.60
51021;DHT22;38907;45.562;8.856;2022-08-27T00:35:52;23.90;98.50
51021;DHT22;38907;45.562;8.856;2022-08-27T00:40:55;23.80;98.60
51021;DHT22;38907;45.562;8.856;2022-08-27T00:46:04;23.80;99.00
51021;DHT22;38907;45.562;8.856;2022-08-27T00:51:10;23.80;99.40
51021;DHT22;38907;45.562;8.856;2022-08-27T00:56:16;23.80;99.40
51021;DHT22;38907;45.562;8.856;2022-08-27T01:01:23;23.80;99.40
51021;DHT22;38907;45.562;8.856;2022-08-27T01:06:33;23.80;99.40
51021;DHT22;38907;45.562;8.856;2022-08-27T01:11:36;23.70;99.50
51021;DHT22;38907;45.562;8.856;2022-08-27T01:16:45;23.70;99.50
51021;DHT22;38907;45.562;8.856;2022-08-27T01:21:56;23.60;99.60
51021;DHT22;38907;45.562;8.856;2022-08-27T01:27:01;23.60;99.60
51021;DHT22;38907;45.562;8.856;2022-08-27T01:32:07;23.60;99.60
51021;DHT22;38907;45.562;8.856;2022-08-27T01:37:11;23.50;99.60
51021;DHT22;38907;45.562;8.856;2022-08-27T01:42:17;23.60;99.50
51021;DHT22;38907;45.562;8.856;2022-08-27T01:47:22;23.50;99.60
51021;DHT22;38907;45.562;8.856;2022-08-27T01:52:27;23.40;99.60
51021;DHT22;38907;45.562;8.856;2022-08-27T01:57:32;23.40;99.40
51021;DHT22;38907;45.562;8.856;2022-08-27T02:02:35;23.60;99.20
51021;DHT22;38907;45.562;8.856;2022-08-27T02:07:38;23.60;99.20
51021;DHT22;38907;45.562;8.856;2022-08-27T02:12:42;23.50;99.20
51021;DHT22;38907;45.562;8.856;2022-08-27T02:17:45;23.50;99.40
51021;DHT22;38907;45.562;8.856;2022-08-27T02:22:47;23.40;99.30
51021;DHT22;38907;45.562;8.856;2022-08-27T02:27:52;23.40;99.70
51021;DHT22;38907;45.562;8.856;2022-08-27T02:32:55;23.40;99.70
51021;DHT22;38907;45.562;8.856;2022-08-27T02:37:57;23.40;99.20
51021;DHT22;38907;45.562;8.856;2022-08-27T02:43:02;23.50;98.90
51021;DHT22;38907;45.562;8.856;2022-08-27T02:48:05;23.60;98.80
51021;DHT22;38907;45.562;8.856;2022-08-27T02:53:09;23.60;98.80
51021;DHT22;38907;45.562;8.856;2022-08-27T02:58:13;23.60;98.90
51021;DHT22;38907;45.562;8.856;2022-08-27T03:03:16;23.60;99.20
51021;DHT22;38907;45.562;8.856;2022-08-27T03:08:19;23.80;99.20
51021;DHT22;38907;45.562;8.856;2022-08-27T03:13:26;23.70;99.40
51021;DHT22;38907;45.562;8.856;2022-08-27T03:18:29;23.80;99.50
51021;DHT22;38907;45.562;8.856;2022-08-27T03:23:32;23.80;99.60
51021;DHT22;38907;45.562;8.856;2022-08-27T03:28:37;23.70;99.90
51021;DHT22;38907;45.562;8.856;2022-08-27T03:33:40;23.70;99.90
51021;DHT22;38907;45.562;8.856;2022-08-27T03:38:43;23.70;99.90
51021;DHT22;38907;45.562;8.856;2022-08-27T03:43:47;23.70;99.90
51021;DHT22;38907;45.562;8.856;2022-08-27T03:48:52;23.80;99.90
51021;DHT22;38907;45.562;8.856;2022-08-27T03:53:55;23.80;99.90
51021;DHT22;38907;45.562;8.856;2022-08-27T03:59:00;23.90;99.90
51021;DHT22;38907;45.562;8.856;2022-08-27T04:04:03;23.90;99.90
51021;DHT22;38907;45.562;8.856;2022-08-27T04:09:06;23.80;99.90
51021;DHT22;38907;45.562;8.856;2022-08-27T04:14:14;23.90;99.90
51021;DHT22;38907;45.562;8.856;2022-08-27T04:19:17;24.00;99.90
51021;DHT22;38907;45.562;8.856;2022-08-27T04:24:20;24.00;99.90
51021;DHT22;38907;45.562;8.856;2022-08-27T04:29:24;24.10;99.90
51021;DHT22;38907;45.562;8.856;2022-08-27T04:34:26;23.90;99.90
51021;DHT22;38907;45.562;8.856;2022-08-27T04:39:30;23.70;99.90
51021;DHT22;38907;45.562;8.856;2022-08-27T04:44:34;23.70;99.90
51021;DHT22;38907;45.562;8.856;2022-08-27T04:49:37;23.60;99.90
51021;DHT22;38907;45.562;8.856;2022-08-27T04:54:40;23.50;99.90
51021;DHT22;38907;45.562;8.856;2022-08-27T04:59:44;23.50;99.90
51021;DHT22;38907;45.562;8.856;2022-08-27T05:04:47;23.40;99.90
51021;DHT22;38907;45.562;8.856;2022-08-27T05:09:49;23.20;99.90
51021;DHT22;38907;45.562;8.856;2022-08-27T05:14:55;23.10;99.90
51021;DHT22;38907;45.562;8.856;2022-08-27T05:19:57;23.10;99.90
51021;DHT22;38907;45.562;8.856;2022-08-27T05:25:00;23.30;99.90
51021;DHT22;38907;45.562;8.856;2022-08-27T05:30:04;23.30;99.90
51021;DHT22;38907;45.562;8.856;2022-08-27T05:35:07;23.10;99.90
51021;DHT22;38907;45.562;8.856;2022-08-27T05:40:10;22.90;99.90
51021;DHT22;38907;45.562;8.856;2022-08-27T05:45:15;22.90;99.90
51021;DHT22;38907;45.562;8.856;2022-08-27T05:50:17;23.00;99.90
51021;DHT22;38907;45.562;8.856;2022-08-27T05:55:20;23.10;99.90
51021;DHT22;38907;45.562;8.856;2022-08-27T06:00:24;23.00;99.90
51021;DHT22;38907;45.562;8.856;2022-08-27T06:05:43;23.00;99.90
51021;DHT22;38907;45.562;8.856;2022-08-27T06:10:46;23.10;99.90
51021;DHT22;38907;45.562;8.856;2022-08-27T06:15:50;23.10;99.90
51021;DHT22;38907;45.562;8.856;2022-08-27T06:20:52;23.00;99.90
51021;DHT22;38907;45.562;8.856;2022-08-27T06:25:56;23.30;99.90
51021;DHT22;38907;45.562;8.856;2022-08-27T06:31:03;23.60;99.90
51021;DHT22;38907;45.562;8.856;2022-08-27T06:36:08;23.90;99.90
51021;DHT22;38907;45.562;8.856;2022-08-27T06:41:13;24.20;99.90
51021;DHT22;38907;45.562;8.856;2022-08-27T06:46:19;24.40;99.90
51021;DHT22;38907;45.562;8.856;2022-08-27T06:51:24;24.60;99.90
51021;DHT22;38907;45.562;8.856;2022-08-27T06:56:27;24.70;99.90
51021;DHT22;38907;45.562;8.856;2022-08-27T07:01:35;24.90;99.90
51021;DHT22;38907;45.562;8.856;2022-08-27T07:06:39;24.90;99.90
51021;DHT22;38907;45.562;8.856;2022-08-27T07:11:41;24.90;99.90
51021;DHT22;38907;45.562;8.856;2022-08-27T07:16:46;25.00;99.90
51021;DHT22;38907;45.562;8.856;2022-08-27T07:21:50;25.20;99.90
51021;DHT22;38907;45.562;8.856;2022-08-27T07:26:53;25.30;99.90
51021;DHT22;38907;45.562;8.856;2022-08-27T07:31:57;25.20;99.90
51021;DHT22;38907;45.562;8.856;2022-08-27T07:37:00;25.20;99.90
51021;DHT22;38907;45.562;8.856;2022-08-27T07:42:02;25.50;99.70
51021;DHT22;38907;45.562;8.856;2022-08-27T07:47:23;25.40;99.00
51021;DHT22;38907;45.562;8.856;2022-08-27T07:52:26;25.50;98.80
51021;DHT22;38907;45.562;8.856;2022-08-27T07:57:30;25.50;98.60
51021;DHT22;38907;45.562;8.856;2022-08-27T08:02:34;25.60;97.90
51021;DHT22;38907;45.562;8.856;2022-08-27T08:07:36;25.80;97.70
51021;DHT22;38907;45.562;8.856;2022-08-27T08:12:39;25.90;97.40
51021;DHT22;38907;45.562;8.856;2022-08-27T08:17:44;26.10;97.50
51021;DHT22;38907;45.562;8.856;2022-08-27T08:22:47;26.10;97.50
51021;DHT22;38907;45.562;8.856;2022-08-27T08:27:49;26.40;97.40
51021;DHT22;38907;45.562;8.856;2022-08-27T08:32:53;26.50;97.50
51021;DHT22;38907;45.562;8.856;2022-08-27T08:37:56;26.60;97.90
51021;DHT22;38907;45.562;8.856;2022-08-27T08:43:00;26.90;97.80
51021;DHT22;38907;45.562;8.856;2022-08-27T08:48:07;26.90;97.40
51021;DHT22;38907;45.562;8.856;2022-08-27T08:53:18;26.70;97.20
51021;DHT22;38907;45.562;8.856;2022-08-27T08:58:31;27.00;96.80
51021;DHT22;38907;45.562;8.856;2022-08-27T09:03:39;26.70;96.60
51021;DHT22;38907;45.562;8.856;2022-08-27T09:08:42;26.80;96.70
51021;DHT22;38907;45.562;8.856;2022-08-27T09:13:48;27.00;95.80
51021;DHT22;38907;45.562;8.856;2022-08-27T09:18:52;27.00;96.60
51021;DHT22;38907;45.562;8.856;2022-08-27T09:24:04;27.10;96.10
51021;DHT22;38907;45.562;8.856;2022-08-27T09:29:09;27.30;96.20
51021;DHT22;38907;45.562;8.856;2022-08-27T09:34:22;27.40;96.20
51021;DHT22;38907;45.562;8.856;2022-08-27T09:39:30;27.40;97.10
51021;DHT22;38907;45.562;8.856;2022-08-27T09:44:44;27.60;97.10
51021;DHT22;38907;45.562;8.856;2022-08-27T09:50:00;27.60;96.70
51021;DHT22;38907;45.562;8.856;2022-08-27T09:55:03;27.70;97.30
51021;DHT22;38907;45.562;8.856;2022-08-27T10:00:11;27.90;95.60
51021;DHT22;38907;45.562;8.856;2022-08-27T10:05:23;27.30;95.40
51021;DHT22;38907;45.562;8.856;2022-08-27T10:10:39;27.50;95.40
51021;DHT22;38907;45.562;8.856;2022-08-27T10:15:54;27.50;95.00
51021;DHT22;38907;45.562;8.856;2022-08-27T10:21:07;27.80;95.10
51021;DHT22;38907;45.562;8.856;2022-08-27T10:26:18;27.80;94.60
51021;DHT22;38907;45.562;8.856;2022-08-27T10:31:28;28.00;94.30
51021;DHT22;38907;45.562;8.856;2022-08-27T10:36:42;28.10;93.90
51021;DHT22;38907;45.562;8.856;2022-08-27T10:41:51;28.00;94.20
51021;DHT22;38907;45.562;8.856;2022-08-27T10:47:14;27.60;94.30
51021;DHT22;38907;45.562;8.856;2022-08-27T10:52:25;27.80;94.20
51021;DHT22;38907;45.562;8.856;2022-08-27T10:57:48;27.90;93.40
51021;DHT22;38907;45.562;8.856;2022-08-27T11:03:00;27.60;93.50
51021;DHT22;38907;45.562;8.856;2022-08-27T11:08:08;27.90;93.60
51021;DHT22;38907;45.562;8.856;2022-08-27T11:13:15;27.70;93.10
51021;DHT22;38907;45.562;8.856;2022-08-27T11:18:25;27.50;92.90
51021;DHT22;38907;45.562;8.856;2022-08-27T11:23:39;27.50;93.10
51021;DHT22;38907;45.562;8.856;2022-08-27T11:28:46;27.70;92.80
51021;DHT22;38907;45.562;8.856;2022-08-27T11:33:56;27.90;92.90
51021;DHT22;38907;45.562;8.856;2022-08-27T11:39:04;27.90;92.60
51021;DHT22;38907;45.562;8.856;2022-08-27T11:44:12;28.00;92.50
51021;DHT22;38907;45.562;8.856;2022-08-27T11:49:28;28.10;92.10
51021;DHT22;38907;45.562;8.856;2022-08-27T11:54:46;28.40;91.50
51021;DHT22;38907;45.562;8.856;2022-08-27T11:59:48;28.60;91.80
51021;DHT22;38907;45.562;8.856;2022-08-27T12:04:52;28.60;91.20
51021;DHT22;38907;45.562;8.856;2022-08-27T12:10:17;28.50;91.20
51021;DHT22;38907;45.562;8.856;2022-08-27T12:15:26;28.50;91.00
51021;DHT22;38907;45.562;8.856;2022-08-27T12:20:38;28.80;91.00
51021;DHT22;38907;45.562;8.856;2022-08-27T12:25:56;29.10;90.60
51021;DHT22;38907;45.562;8.856;2022-08-27T12:31:00;29.20;90.30
51021;DHT22;38907;45.562;8.856;2022-08-27T12:36:09;29.20;90.20
51021;DHT22;38907;45.562;8.856;2022-08-27T12:41:25;29.40;90.20
51021;DHT22;38907;45.562;8.856;2022-08-27T12:46:29;29.20;89.60
51021;DHT22;38907;45.562;8.856;2022-08-27T12:51:34;29.20;89.10
51021;DHT22;38907;45.562;8.856;2022-08-27T12:56:48;29.30;88.60
51021;DHT22;38907;45.562;8.856;2022-08-27T13:02:00;29.50;88.40
51021;DHT22;38907;45.562;8.856;2022-08-27T13:07:09;29.70;88.20
51021;DHT22;38907;45.562;8.856;2022-08-27T13:12:16;29.70;89.30
51021;DHT22;38907;45.562;8.856;2022-08-27T13:17:21;29.50;88.00
51021;DHT22;38907;45.562;8.856;2022-08-27T13:22:29;29.50;88.40
51021;DHT22;38907;45.562;8.856;2022-08-27T13:27:36;29.40;88.20
51021;DHT22;38907;45.562;8.856;2022-08-27T13:32:39;29.50;88.00
51021;DHT22;38907;45.562;8.856;2022-08-27T13:37:45;29.80;87.80
51021;DHT22;38907;45.562;8.856;2022-08-27T13:42:49;29.60;87.20
51021;DHT22;38907;45.562;8.856;2022-08-27T13:47:53;29.80;86.70
51021;DHT22;38907;45.562;8.856;2022-08-27T13:53:03;30.00;87.10
51021;DHT22;38907;45.562;8.856;2022-08-27T13:58:28;29.50;86.00
51021;DHT22;38907;45.562;8.856;2022-08-27T14:03:33;29.90;86.10
51021;DHT22;38907;45.562;8.856;2022-08-27T14:08:36;29.70;86.60
51021;DHT22;38907;45.562;8.856;2022-08-27T14:13:43;29.80;86.70
51021;DHT22;38907;45.562;8.856;2022-08-27T14:18:52;29.90;86.80
51021;DHT22;38907;45.562;8.856;2022-08-27T14:23:56;30.00;85.80
51021;DHT22;38907;45.562;8.856;2022-08-27T14:29:00;30.10;86.40
51021;DHT22;38907;45.562;8.856;2022-08-27T14:34:03;30.10;85.90
51021;DHT22;38907;45.562;8.856;2022-08-27T14:39:06;30.00;86.30
51021;DHT22;38907;45.562;8.856;2022-08-27T14:44:10;29.70;85.50
51021;DHT22;38907;45.562;8.856;2022-08-27T14:49:16;29.80;86.60
51021;DHT22;38907;45.562;8.856;2022-08-27T14:54:22;29.90;85.60
51021;DHT22;38907;45.562;8.856;2022-08-27T14:59:26;29.60;86.60
51021;DHT22;38907;45.562;8.856;2022-08-27T15:04:29;29.80;86.90
51021;DHT22;38907;45.562;8.856;2022-08-27T15:09:33;29.40;86.90
51021;DHT22;38907;45.562;8.856;2022-08-27T15:14:37;29.70;87.60
51021;DHT22;38907;45.562;8.856;2022-08-27T15:19:43;29.60;88.40
51021;DHT22;38907;45.562;8.856;2022-08-27T15:24:51;29.70;87.70
51021;DHT22;38907;45.562;8.856;2022-08-27T15:29:56;29.40;89.60
51021;DHT22;38907;45.562;8.856;2022-08-27T15:35:04;29.40;88.50
51021;DHT22;38907;45.562;8.856;2022-08-27T15:40:09;29.40;89.10
51021;DHT22;38907;45.562;8.856;2022-08-27T15:45:14;29.50;88.80
51021;DHT22;38907;45.562;8.856;2022-08-27T15:50:17;29.70;88.00
51021;DHT22;38907;45.562;8.856;2022-08-27T15:55:23;29.60;87.60
51021;DHT22;38907;45.562;8.856;2022-08-27T16:00:30;29.40;88.10
51021;DHT22;38907;45.562;8.856;2022-08-27T16:05:35;29.50;88.30
51021;DHT22;38907;45.562;8.856;2022-08-27T16:10:38;29.30;88.10
51021;DHT22;38907;45.562;8.856;2022-08-27T16:15:42;29.30;88.70
51021;DHT22;38907;45.562;8.856;2022-08-27T16:20:45;29.20;88.90
51021;DHT22;38907;45.562;8.856;2022-08-27T16:25:48;29.10;89.10
51021;DHT22;38907;45.562;8.856;2022-08-27T16:30:54;29.20;89.20
51021;DHT22;38907;45.562;8.856;2022-08-27T16:35:57;28.90;89.40
51021;DHT22;38907;45.562;8.856;2022-08-27T16:41:01;28.80;89.40
51021;DHT22;38907;45.562;8.856;2022-08-27T16:46:07;28.60;88.90
51021;DHT22;38907;45.562;8.856;2022-08-27T16:51:14;28.60;89.40
51021;DHT22;38907;45.562;8.856;2022-08-27T16:56:18;28.50;89.20
51021;DHT22;38907;45.562;8.856;2022-08-27T17:01:24;28.40;89.50
51021;DHT22;38907;45.562;8.856;2022-08-27T17:06:27;28.40;89.60
51021;DHT22;38907;45.562;8.856;2022-08-27T17:11:31;28.30;88.90
51021;DHT22;38907;45.562;8.856;2022-08-27T17:16:35;28.20;88.80
51021;DHT22;38907;45.562;8.856;2022-08-27T17:21:38;28.10;88.60
51021;DHT22;38907;45.562;8.856;2022-08-27T17:26:42;28.10;88.70
51021;DHT22;38907;45.562;8.856;2022-08-27T17:31:46;28.10;88.30
51021;DHT22;38907;45.562;8.856;2022-08-27T17:36:50;28.10;88.70
51021;DHT22;38907;45.562;8.856;2022-08-27T17:41:53;28.00;89.20
51021;DHT22;38907;45.562;8.856;2022-08-27T17:46:59;28.00;89.60
51021;DHT22;38907;45.562;8.856;2022-08-27T17:52:05;28.00;89.60
51021;DHT22;38907;45.562;8.856;2022-08-27T17:57:15;27.90;89.70
51021;DHT22;38907;45.562;8.856;2022-08-27T18:02:21;27.90;90.10
51021;DHT22;38907;45.562;8.856;2022-08-27T18:07:24;27.60;90.30
51021;DHT22;38907;45.562;8.856;2022-08-27T18:12:27;27.40;90.60
51021;DHT22;38907;45.562;8.856;2022-08-27T18:17:31;27.50;90.50
51021;DHT22;38907;45.562;8.856;2022-08-27T18:22:34;27.50;90.60
51021;DHT22;38907;45.562;8.856;2022-08-27T18:27:40;27.50;90.80
51021;DHT22;38907;45.562;8.856;2022-08-27T18:32:45;27.50;90.60
51021;DHT22;38907;45.562;8.856;2022-08-27T18:37:48;27.50;90.70
51021;DHT22;38907;45.562;8.856;2022-08-27T18:42:51;27.40;90.70
51021;DHT22;38907;45.562;8.856;2022-08-27T18:47:57;27.30;91.10
51021;DHT22;38907;45.562;8.856;2022-08-27T18:53:02;27.20;91.40
51021;DHT22;38907;45.562;8.856;2022-08-27T18:58:04;27.10;91.30
51021;DHT22;38907;45.562;8.856;2022-08-27T19:03:09;27.10;91.70
51021;DHT22;38907;45.562;8.856;2022-08-27T19:08:13;27.10;91.80
51021;DHT22;38907;45.562;8.856;2022-08-27T19:13:15;27.00;92.10
51021;DHT22;38907;45.562;8.856;2022-08-27T19:18:20;27.10;92.10
51021;DHT22;38907;45.562;8.856;2022-08-27T19:23:23;27.00;92.20
51021;DHT22;38907;45.562;8.856;2022-08-27T19:28:30;26.90;92.40
51021;DHT22;38907;45.562;8.856;2022-08-27T19:33:38;26.90;92.70
51021;DHT22;38907;45.562;8.856;2022-08-27T19:38:40;26.90;92.80
51021;DHT22;38907;45.562;8.856;2022-08-27T19:43:44;26.70;93.30
51021;DHT22;38907;45.562;8.856;2022-08-27T19:48:48;26.60;93.50
51021;DHT22;38907;45.562;8.856;2022-08-27T19:53:51;26.90;93.50
51021;DHT22;38907;45.562;8.856;2022-08-27T19:58:53;26.90;93.30
51021;DHT22;38907;45.562;8.856;2022-08-27T20:03:58;26.90;93.50
51021;DHT22;38907;45.562;8.856;2022-08-27T20:09:01;26.80;93.60
51021;DHT22;38907;45.562;8.856;2022-08-27T20:14:06;26.90;93.60
51021;DHT22;38907;45.562;8.856;2022-08-27T20:19:10;26.90;93.60
51021;DHT22;38907;45.562;8.856;2022-08-27T20:24:13;26.70;93.70
51021;DHT22;38907;45.562;8.856;2022-08-27T20:29:15;26.70;93.90
51021;DHT22;38907;45.562;8.856;2022-08-27T20:34:19;26.80;93.40
51021;DHT22;38907;45.562;8.856;2022-08-27T20:39:23;26.80;93.30
51021;DHT22;38907;45.562;8.856;2022-08-27T20:44:26;26.60;94.10
51021;DHT22;38907;45.562;8.856;2022-08-27T20:49:30;26.20;95.80
51021;DHT22;38907;45.562;8.856;2022-08-27T20:54:35;25.50;98.30
51021;DHT22;38907;45.562;8.856;2022-08-27T20:59:38;25.30;99.90
51021;DHT22;38907;45.562;8.856;2022-08-27T21:05:05;25.60;99.90
51021;DHT22;38907;45.562;8.856;2022-08-27T21:10:08;25.70;99.90
51021;DHT22;38907;45.562;8.856;2022-08-27T21:15:12;25.80;99.90
51021;DHT22;38907;45.562;8.856;2022-08-27T21:20:16;25.90;99.90
51021;DHT22;38907;45.562;8.856;2022-08-27T21:25:19;25.70;99.90
51021;DHT22;38907;45.562;8.856;2022-08-27T21:30:24;25.60;99.90
51021;DHT22;38907;45.562;8.856;2022-08-27T21:35:30;25.50;99.90
51021;DHT22;38907;45.562;8.856;2022-08-27T21:40:33;25.50;99.90
51021;DHT22;38907;45.562;8.856;2022-08-27T21:45:36;25.50;99.90
51021;DHT22;38907;45.562;8.856;2022-08-27T21:50:40;25.60;99.90
51021;DHT22;38907;45.562;8.856;2022-08-27T21:55:43;25.50;99.90
51021;DHT22;38907;45.562;8.856;2022-08-27T22:00:48;25.40;99.90
51021;DHT22;38907;45.562;8.856;2022-08-27T22:05:52;25.40;99.90
51021;DHT22;38907;45.562;8.856;2022-08-27T22:10:57;25.40;99.90
51021;DHT22;38907;45.562;8.856;2022-08-27T22:16:00;25.20;99.90
51021;DHT22;38907;45.562;8.856;2022-08-27T22:21:05;25.10;99.90
51021;DHT22;38907;45.562;8.856;2022-08-27T22:26:10;25.00;99.90
51021;DHT22;38907;45.562;8.856;2022-08-27T22:31:12;25.00;99.90
51021;DHT22;38907;45.562;8.856;2022-08-27T22:36:17;24.80;99.90
51021;DHT22;38907;45.562;8.856;2022-08-27T22:41:19;24.60;99.90
51021;DHT22;38907;45.562;8.856;2022-08-27T22:46:22;24.70;99.90
51021;DHT22;38907;45.562;8.856;2022-08-27T22:51:26;24.70;99.90
51021;DHT22;38907;45.562;8.856;2022-08-27T22:56:29;24.80;99.90
51021;DHT22;38907;45.562;8.856;2022-08-27T23:01:32;24.70;99.90
51021;DHT22;38907;45.562;8.856;2022-08-27T23:06:38;24.70;99.90
51021;DHT22;38907;45.562;8.856;2022-08-27T23:11:41;24.70;99.90
51021;DHT22;38907;45.562;8.856;2022-08-27T23:16:44;24.60;99.90
51021;DHT22;38907;45.562;8.856;2022-08-27T23:21:48;24.60;99.90
51021;DHT22;38907;45.562;8.856;2022-08-27T23:26:51;24.60;99.90
51021;DHT22;38907;45.562;8.856;2022-08-27T23:32:10;24.60;99.90
51021;DHT22;38907;45.562;8.856;2022-08-27T23:37:15;24.50;99.90
51021;DHT22;38907;45.562;8.856;2022-08-27T23:42:18;24.50;99.90
51021;DHT22;38907;45.562;8.856;2022-08-27T23:47:21;24.50;99.90
51021;DHT22;38907;45.562;8.856;2022-08-27T23:52:25;24.50;99.90
51021;DHT22;38907;45.562;8.856;2022-08-27T23:57:28;24.50;99.90
